Time;durP1;ratioP1;P1;durP2;ratioP2;P2;SDS_P1;SDS_P2;PMS_P1;PMS_P2;Temp;Humidity;BMP_temperature;BMP_pressure;BME280_temperature;BME280_humidity;BME280_pressure;Samples;Min_cycle;Max_cycle;Signal;HPM_P1;HPM_P2
2023/12/14 00:03:53;;;;;;;52.30;23.20;;;;;;;2.86;98.84;98697.44;219570;1257;141659;-65
2023/12/14 00:08:59;;;;;;;47.00;22.90;;;;;;;2.87;98.84;98702.54;220318;1257;140646;-65
2023/12/14 00:14:03;;;;;;;52.50;24.30;;;;;;;2.88;98.84;98710.20;219150;1256;140010;-64
2023/12/14 00:19:08;;;;;;;51.00;22.50;;;;;;;2.88;98.85;98715.78;217658;1257;292488;-63
2023/12/14 00:24:12;;;;;;;52.60;25.30;;;;;;;2.87;98.74;98729.02;219017;1257;139974;-66
2023/12/14 00:29:17;;;;;;;45.40;21.70;;;;;;;2.87;98.88;98736.48;218684;1257;140769;-66
2023/12/14 00:34:22;;;;;;;52.10;24.10;;;;;;;2.83;98.53;98738.60;217644;1261;139874;-65
2023/12/14 00:39:27;;;;;;;60.10;30.40;;;;;;;2.75;98.53;98743.33;217725;1257;139779;-65
2023/12/14 00:44:31;;;;;;;56.30;28.10;;;;;;;2.71;98.95;98751.77;217659;1257;139786;-66
2023/12/14 00:49:36;;;;;;;54.90;26.20;;;;;;;2.65;98.96;98753.34;218544;1259;139777;-65
2023/12/14 00:54:40;;;;;;;51.40;24.70;;;;;;;2.61;99.05;98753.06;218436;1257;139973;-65
2023/12/14 00:59:45;;;;;;;54.20;24.90;;;;;;;2.59;99.11;98751.20;218453;1257;141819;-65
2023/12/14 01:04:50;;;;;;;48.50;23.80;;;;;;;2.57;99.19;98753.15;218763;1257;139863;-65
2023/12/14 01:09:54;;;;;;;51.60;25.10;;;;;;;2.57;99.19;98759.66;218508;1260;140126;-65
2023/12/14 01:14:59;;;;;;;56.90;25.60;;;;;;;2.55;99.20;98763.75;218010;1259;140097;-65
2023/12/14 01:20:07;;;;;;;44.90;24.20;;;;;;;2.53;99.25;98764.36;218559;1258;139976;-65
2023/12/14 01:25:12;;;;;;;45.60;25.90;;;;;;;2.52;99.30;98771.53;218012;1260;140196;-67
2023/12/14 01:30:17;;;;;;;51.00;25.60;;;;;;;2.52;99.34;98772.05;218431;1260;141177;-65
2023/12/14 01:35:21;;;;;;;41.90;20.10;;;;;;;2.52;99.40;98774.16;218572;1259;139526;-65
2023/12/14 01:40:27;;;;;;;44.70;22.00;;;;;;;2.50;99.34;98776.76;217840;1257;140775;-65
2023/12/14 01:45:32;;;;;;;35.80;17.30;;;;;;;2.47;99.19;98777.53;219923;1256;140224;-65
2023/12/14 01:50:36;;;;;;;39.30;20.60;;;;;;;2.44;99.41;98775.81;219664;1258;140293;-65
2023/12/14 01:55:40;;;;;;;41.60;19.50;;;;;;;2.45;99.38;98776.13;220202;1260;140685;-68
2023/12/14 02:01:11;;;;;;;30.60;17.60;;;;;;;2.45;99.01;98779.68;219054;1260;140608;-67
2023/12/14 02:06:16;;;;;;;33.00;17.00;;;;;;;2.45;99.21;98778.35;218966;1260;140296;-68
2023/12/14 02:11:20;;;;;;;39.90;18.60;;;;;;;2.42;99.05;98778.09;217787;1260;140932;-67
2023/12/14 02:16:24;;;;;;;39.00;21.20;;;;;;;2.36;99.10;98775.14;218008;1260;141116;-68
2023/12/14 02:21:29;;;;;;;34.60;14.80;;;;;;;2.32;99.09;98770.98;219022;1258;140648;-67
2023/12/14 02:26:35;;;;;;;41.40;19.90;;;;;;;2.28;99.17;98774.26;219029;1260;141002;-67
2023/12/14 02:31:39;;;;;;;34.00;16.80;;;;;;;2.29;99.48;98778.02;218182;1259;140238;-66
2023/12/14 02:36:43;;;;;;;31.40;15.60;;;;;;;2.30;99.32;98782.99;218661;1257;139640;-66
2023/12/14 02:41:47;;;;;;;27.50;14.80;;;;;;;2.28;99.38;98787.89;218211;1260;139961;-66
2023/12/14 02:46:51;;;;;;;27.50;18.00;;;;;;;2.28;99.40;98792.83;218731;1257;139541;-67
2023/12/14 02:51:56;;;;;;;25.90;13.40;;;;;;;2.29;99.41;98794.89;218141;1260;140414;-66
2023/12/14 02:57:00;;;;;;;30.40;15.20;;;;;;;2.28;99.40;98796.71;218758;1257;140191;-66
2023/12/14 03:02:04;;;;;;;25.70;15.00;;;;;;;2.28;99.38;98801.73;218508;1256;140965;-66
2023/12/14 03:07:10;;;;;;;28.10;13.40;;;;;;;2.26;99.39;98804.20;217638;1258;140719;-64
2023/12/14 03:12:14;;;;;;;22.90;12.80;;;;;;;2.25;99.53;98804.84;218782;1257;140951;-65
2023/12/14 03:17:19;;;;;;;21.30;11.80;;;;;;;2.24;99.40;98807.59;218734;1260;140350;-64
2023/12/14 03:22:23;;;;;;;20.00;12.20;;;;;;;2.24;99.28;98817.83;217913;1257;140120;-65
2023/12/14 03:27:26;;;;;;;21.50;11.90;;;;;;;2.24;99.33;98820.95;219275;1257;139839;-64
2023/12/14 03:32:30;;;;;;;17.40;11.40;;;;;;;2.22;99.18;98827.50;218114;1260;139818;-65
2023/12/14 03:37:36;;;;;;;20.60;11.90;;;;;;;2.21;99.20;98835.02;218652;1256;140560;-64
2023/12/14 03:42:40;;;;;;;23.60;14.20;;;;;;;2.21;99.44;98836.88;218869;1257;140919;-64
2023/12/14 03:47:44;;;;;;;23.10;12.70;;;;;;;2.21;99.13;98848.65;220526;1257;140116;-65
2023/12/14 03:52:50;;;;;;;21.50;12.40;;;;;;;2.19;99.05;98851.92;220513;1257;141840;-64
2023/12/14 03:57:55;;;;;;;16.60;12.70;;;;;;;2.20;99.19;98854.36;218208;1259;140088;-63
2023/12/14 04:03:00;;;;;;;18.70;12.80;;;;;;;2.22;99.10;98857.48;219225;1256;140512;-64
2023/12/14 04:08:05;;;;;;;23.40;12.50;;;;;;;2.21;99.01;98868.47;219136;1258;140347;-63
2023/12/14 04:13:10;;;;;;;21.20;13.30;;;;;;;2.19;99.15;98871.30;218159;1256;140307;-64
2023/12/14 04:18:14;;;;;;;23.30;14.60;;;;;;;2.19;99.32;98874.38;218575;1257;140352;-64
2023/12/14 04:23:18;;;;;;;20.60;12.70;;;;;;;2.18;99.35;98880.57;218727;1256;140278;-63
2023/12/14 04:28:24;;;;;;;24.00;12.90;;;;;;;2.17;99.20;98886.73;218207;1257;139717;-64
2023/12/14 04:33:29;;;;;;;22.40;15.20;;;;;;;2.14;99.21;98891.28;218440;1257;139752;-64
2023/12/14 04:38:34;;;;;;;24.60;13.30;;;;;;;2.14;99.46;98896.31;218577;1256;139597;-65
2023/12/14 04:43:39;;;;;;;22.40;14.80;;;;;;;2.15;99.60;98900.17;219360;1256;139481;-65
2023/12/14 04:48:43;;;;;;;20.50;13.20;;;;;;;2.16;99.42;98910.05;218064;1257;140714;-65
2023/12/14 04:53:47;;;;;;;24.90;13.50;;;;;;;2.15;99.46;98920.23;218041;1258;140291;-65
2023/12/14 04:58:51;;;;;;;28.10;14.70;;;;;;;2.14;99.17;98921.66;218300;1254;139630;-65
2023/12/14 05:03:55;;;;;;;20.00;12.50;;;;;;;2.14;99.51;98932.55;218412;1260;139939;-65
2023/12/14 05:09:02;;;;;;;24.30;14.00;;;;;;;2.14;99.55;98933.23;218716;1256;139780;-66
2023/12/14 05:14:07;;;;;;;;;;;;;;;2.15;99.49;98943.25;218198;1256;140951;-64
2023/12/14 05:19:12;;;;;;;23.40;14.00;;;;;;;2.11;99.45;98953.39;218376;1257;127204;-64
2023/12/14 05:24:17;;;;;;;23.90;13.40;;;;;;;2.08;99.43;98954.83;218720;1257;140147;-63
2023/12/14 05:29:23;;;;;;;22.10;13.20;;;;;;;2.08;99.55;98960.33;219743;1255;139617;-65
2023/12/14 05:34:28;;;;;;;28.00;15.00;;;;;;;2.07;99.42;98966.71;218849;1256;140792;-65
2023/12/14 05:39:32;;;;;;;22.60;14.00;;;;;;;2.07;99.41;98972.14;220578;1257;140991;-66
2023/12/14 05:44:37;;;;;;;19.30;11.30;;;;;;;2.07;99.40;98979.21;220652;1256;140332;-64
2023/12/14 05:49:42;;;;;;;17.30;11.50;;;;;;;2.08;99.29;98980.84;220632;1256;141023;-64
2023/12/14 05:54:47;;;;;;;17.70;11.10;;;;;;;2.09;99.01;98987.88;219275;1256;140399;-65
2023/12/14 05:59:51;;;;;;;21.40;14.80;;;;;;;2.09;98.96;98991.76;219199;1254;140584;-63
2023/12/14 06:04:57;;;;;;;21.20;12.40;;;;;;;2.08;99.08;98993.94;218615;1257;139756;-62
2023/12/14 06:10:03;;;;;;;22.60;12.60;;;;;;;2.07;99.04;98995.95;220181;1255;139790;-63
2023/12/14 06:15:07;;;;;;;23.90;12.80;;;;;;;2.10;99.36;99001.14;218599;1254;140714;-64
2023/12/14 06:20:13;;;;;;;19.50;11.90;;;;;;;2.11;99.06;99008.95;217859;1257;139903;-63
2023/12/14 06:25:18;;;;;;;19.90;14.80;;;;;;;2.10;99.00;99018.98;218894;1256;139882;-63
2023/12/14 06:30:22;;;;;;;21.80;14.20;;;;;;;2.08;99.26;99021.52;218246;1256;142284;-64
2023/12/14 06:35:27;;;;;;;21.70;13.40;;;;;;;2.07;99.18;99031.30;218952;1257;139584;-63
2023/12/14 06:40:32;;;;;;;21.90;14.20;;;;;;;2.07;99.54;99040.33;218553;1258;140502;-63
2023/12/14 06:45:39;;;;;;;31.20;16.80;;;;;;;2.08;99.49;99050.36;217989;1257;141993;-64
2023/12/14 06:50:44;;;;;;;27.40;13.90;;;;;;;2.07;99.40;99065.96;218064;1257;140128;-65
2023/12/14 06:55:52;;;;;;;23.90;14.30;;;;;;;2.06;99.49;99067.09;217971;1254;139739;-66
2023/12/14 07:00:57;;;;;;;20.10;11.70;;;;;;;2.02;99.49;99079.16;217904;1257;139925;-64
2023/12/14 07:06:03;;;;;;;19.90;11.80;;;;;;;1.98;99.40;99087.55;219012;1256;139966;-67
2023/12/14 07:11:08;;;;;;;16.40;11.90;;;;;;;1.97;99.45;99090.54;218820;1256;153315;-65
2023/12/14 07:16:14;;;;;;;27.50;13.60;;;;;;;1.97;99.67;99095.55;218625;1256;140291;-68
2023/12/14 07:21:19;;;;;;;27.80;14.20;;;;;;;1.99;99.76;99105.91;218550;1257;139771;-66
2023/12/14 07:26:23;;;;;;;20.30;13.10;;;;;;;2.04;99.89;99108.21;219068;1256;140321;-65
2023/12/14 07:31:28;;;;;;;16.70;10.90;;;;;;;2.09;99.74;99112.69;219654;1256;141496;-65
2023/12/14 07:36:32;;;;;;;25.00;13.60;;;;;;;2.14;99.47;99116.14;220495;1256;140271;-66
2023/12/14 07:41:37;;;;;;;23.90;13.60;;;;;;;2.19;99.50;99121.46;220385;1256;140336;-65
2023/12/14 07:46:43;;;;;;;27.10;15.30;;;;;;;2.25;99.32;99132.16;218667;1256;139799;-65
2023/12/14 07:51:47;;;;;;;21.30;12.60;;;;;;;2.27;99.24;99140.27;220018;1256;139684;-66
2023/12/14 07:56:52;;;;;;;19.40;12.10;;;;;;;2.27;99.19;99142.58;220488;1256;140325;-66
2023/12/14 08:01:56;;;;;;;17.40;11.00;;;;;;;2.24;99.14;99147.62;218576;1257;139777;-67
2023/12/14 08:07:00;;;;;;;20.50;12.00;;;;;;;2.23;99.12;99152.34;219469;1256;140730;-65
2023/12/14 08:12:04;;;;;;;20.90;14.00;;;;;;;2.23;99.11;99162.21;218560;1257;140038;-66
2023/12/14 08:17:10;;;;;;;26.30;13.70;;;;;;;2.25;99.26;99169.87;218436;1257;139739;-65
2023/12/14 08:22:15;;;;;;;24.50;14.60;;;;;;;2.27;99.37;99176.77;218828;1256;140050;-66
2023/12/14 08:27:21;;;;;;;24.60;15.30;;;;;;;2.29;99.47;99182.77;218292;1256;141438;-65
2023/12/14 08:32:25;;;;;;;26.70;14.00;;;;;;;2.29;99.47;99195.63;218637;1256;139925;-66
2023/12/14 08:37:29;;;;;;;26.80;15.10;;;;;;;2.30;99.58;99205.84;219484;1256;140314;-67
2023/12/14 08:42:34;;;;;;;26.20;16.40;;;;;;;2.29;99.28;99212.38;217893;1258;139796;-65
2023/12/14 08:47:39;;;;;;;30.20;17.20;;;;;;;2.27;99.06;99217.91;217987;1259;139740;-67
2023/12/14 08:52:46;;;;;;;29.60;17.60;;;;;;;2.29;99.47;99222.95;218114;1255;139566;-66
2023/12/14 08:57:52;;;;;;;28.50;17.10;;;;;;;2.31;99.57;99231.25;217815;1257;140448;-67
2023/12/14 09:02:56;;;;;;;25.40;14.90;;;;;;;2.31;99.51;99234.96;218332;1256;139866;-66
2023/12/14 09:08:01;;;;;;;28.90;16.80;;;;;;;2.31;99.54;99244.60;219341;1256;139680;-66
2023/12/14 09:13:08;;;;;;;31.90;17.60;;;;;;;2.32;99.50;99254.11;220594;1255;140906;-66
2023/12/14 09:18:13;;;;;;;35.50;20.00;;;;;;;2.31;99.16;99257.02;220593;1256;139972;-68
2023/12/14 09:23:19;;;;;;;37.40;19.90;;;;;;;2.32;99.16;99259.73;220679;1256;140526;-68
2023/12/14 09:28:23;;;;;;;26.10;16.50;;;;;;;2.34;99.21;99265.22;220443;1256;140331;-70
2023/12/14 09:33:26;;;;;;;24.40;14.70;;;;;;;2.34;98.87;99268.70;220739;1256;140202;-68
2023/12/14 09:38:31;;;;;;;31.20;17.00;;;;;;;2.38;98.99;99273.45;220580;1255;140359;-68
2023/12/14 09:43:35;;;;;;;28.30;16.90;;;;;;;2.39;98.83;99280.55;220670;1256;140572;-68
2023/12/14 09:48:40;;;;;;;28.40;17.60;;;;;;;2.40;98.59;99285.69;220687;1255;139706;-67
2023/12/14 09:57:01;;;;;;;30.10;16.70;;;;;;;2.51;98.93;99298.73;214500;1295;634702;-66
2023/12/14 10:02:11;;;;;;;33.00;18.20;;;;;;;2.55;99.18;99301.07;217768;1270;140605;-65
2023/12/14 10:07:16;;;;;;;26.90;15.60;;;;;;;2.57;98.88;99307.15;217007;1272;579483;-67
2023/12/14 10:12:22;;;;;;;30.60;18.00;;;;;;;2.54;98.78;99306.97;216974;1266;139448;-68
2023/12/14 10:17:31;;;;;;;27.20;15.10;;;;;;;2.56;98.96;99310.06;218166;1269;207833;-66
2023/12/14 10:22:37;;;;;;;21.20;14.90;;;;;;;2.55;98.67;99313.21;216427;1269;139052;-68
2023/12/14 10:27:41;;;;;;;28.80;16.80;;;;;;;2.52;98.70;99322.86;218207;1267;139082;-68
2023/12/14 10:32:50;;;;;;;23.90;14.30;;;;;;;2.53;98.81;99326.76;217210;1269;139267;-67
2023/12/14 10:37:58;;;;;;;26.20;16.50;;;;;;;2.53;98.67;99335.70;217409;1269;139148;-67
2023/12/14 10:43:04;;;;;;;29.00;14.80;;;;;;;2.50;98.68;99344.63;216432;1269;138978;-66
2023/12/14 10:48:13;;;;;;;29.20;12.80;;;;;;;2.51;98.72;99348.06;217117;1267;139467;-66
2023/12/14 10:53:21;;;;;;;25.80;15.40;;;;;;;2.51;98.92;99357.90;216754;1269;140369;-67
2023/12/14 10:58:27;;;;;;;27.70;16.30;;;;;;;2.51;98.99;99364.02;216339;1268;140580;-67
2023/12/14 11:03:36;;;;;;;26.60;14.30;;;;;;;2.53;98.96;99367.11;216945;1272;139665;-67
2023/12/14 11:08:40;;;;;;;27.20;16.00;;;;;;;2.53;98.97;99363.06;218244;1269;139000;-66
2023/12/14 11:13:53;;;;;;;15.00;10.10;;;;;;;2.59;99.17;99369.47;219090;1267;139472;-68
2023/12/14 11:19:23;;;;;;;22.40;13.20;;;;;;;2.62;98.97;99370.30;218546;1267;140953;-67
2023/12/14 11:24:27;;;;;;;15.20;11.00;;;;;;;2.61;98.71;99376.28;219302;1261;139085;-67
2023/12/14 11:29:31;;;;;;;17.00;11.10;;;;;;;2.64;98.75;99373.92;219942;1261;139384;-67
2023/12/14 11:34:35;;;;;;;22.00;12.50;;;;;;;2.66;98.48;99371.09;217575;1260;139317;-67
2023/12/14 11:39:40;;;;;;;24.40;14.60;;;;;;;2.67;98.73;99378.08;219285;1258;140396;-67
2023/12/14 11:44:45;;;;;;;27.30;15.10;;;;;;;2.67;98.39;99381.03;219809;1260;139738;-67
2023/12/14 11:49:49;;;;;;;25.80;14.70;;;;;;;2.63;98.33;99387.02;218322;1260;139919;-66
2023/12/14 11:54:54;;;;;;;24.90;15.60;;;;;;;2.63;98.52;99387.43;217750;1260;141284;-66
2023/12/14 12:00:00;;;;;;;23.80;15.80;;;;;;;2.57;98.32;99392.03;218669;1260;139158;-67
2023/12/14 12:05:05;;;;;;;28.20;17.00;;;;;;;2.55;98.47;99395.30;219065;1260;139969;-65
2023/12/14 12:10:11;;;;;;;36.30;21.80;;;;;;;2.58;98.86;99394.27;217971;1260;139620;-65
2023/12/14 12:15:15;;;;;;;29.10;17.70;;;;;;;2.63;98.97;99401.44;218298;1260;139092;-65
2023/12/14 12:20:19;;;;;;;31.20;16.40;;;;;;;2.65;98.78;99402.95;217982;1260;139811;-66
2023/12/14 12:25:23;;;;;;;27.40;15.50;;;;;;;2.61;98.58;99410.82;217524;1259;140268;-64
2023/12/14 12:30:28;;;;;;;30.10;18.50;;;;;;;2.58;98.83;99416.38;217581;1260;139692;-65
2023/12/14 12:35:34;;;;;;;32.30;16.50;;;;;;;2.56;98.79;99422.08;218086;1260;139296;-65
2023/12/14 12:40:39;;;;;;;31.00;15.10;;;;;;;2.56;98.74;99428.13;218611;1256;139366;-65
2023/12/14 12:45:50;;;;;;;30.70;15.70;;;;;;;2.54;98.81;99427.08;218269;1260;139248;-65
2023/12/14 12:50:55;;;;;;;35.10;18.90;;;;;;;2.52;98.82;99424.02;217808;1257;139727;-66
2023/12/14 12:56:00;;;;;;;33.40;20.60;;;;;;;2.46;98.37;99435.83;218502;1257;139775;-65
2023/12/14 13:01:09;;;;;;;47.30;23.50;;;;;;;2.44;98.86;99436.52;217589;1257;140579;-66
2023/12/14 13:06:14;;;;;;;38.30;19.50;;;;;;;2.45;98.93;99442.17;218399;1260;140446;-66
2023/12/14 13:11:18;;;;;;;36.60;22.50;;;;;;;2.44;98.82;99449.41;218935;1257;139582;-66
2023/12/14 13:16:22;;;;;;;42.00;22.70;;;;;;;2.44;99.03;99456.78;217772;1257;139252;-66
2023/12/14 13:21:30;;;;;;;32.60;17.40;;;;;;;2.45;98.75;99461.28;219252;1256;141700;-66
2023/12/14 13:26:34;;;;;;;35.20;18.50;;;;;;;2.45;98.82;99470.83;220123;1256;140947;-66
2023/12/14 13:31:39;;;;;;;27.80;18.80;;;;;;;2.43;98.63;99481.10;220390;1257;139580;-66
2023/12/14 13:36:43;;;;;;;32.70;18.70;;;;;;;2.44;98.55;99489.08;220437;1256;140513;-67
2023/12/14 13:41:47;;;;;;;25.10;16.00;;;;;;;2.49;98.83;99495.75;219000;1256;140682;-67
2023/12/14 13:46:55;;;;;;;30.40;16.20;;;;;;;2.53;98.58;99508.34;218690;1257;139897;-66
2023/12/14 13:52:02;;;;;;;27.30;15.80;;;;;;;2.57;98.66;99520.37;220087;1257;141422;-66
2023/12/14 13:57:07;;;;;;;27.80;16.80;;;;;;;2.60;98.63;99527.80;217762;1257;139326;-66
2023/12/14 14:02:13;;;;;;;35.40;20.00;;;;;;;2.57;98.43;99531.74;219145;1257;139699;-66
2023/12/14 14:07:18;;;;;;;33.80;17.00;;;;;;;2.58;98.73;99537.85;218745;1256;139450;-66
2023/12/14 14:12:25;;;;;;;30.50;15.60;;;;;;;2.59;98.84;99544.39;218377;1256;159834;-66
2023/12/14 14:17:30;;;;;;;28.80;16.10;;;;;;;2.58;98.82;99545.31;218311;1257;140076;-66
2023/12/14 14:22:34;;;;;;;29.80;16.40;;;;;;;2.60;98.89;99547.56;218439;1256;139837;-66
2023/12/14 14:27:40;;;;;;;34.20;17.50;;;;;;;2.59;98.78;99554.76;218309;1256;139365;-65
2023/12/14 14:32:45;;;;;;;37.60;20.30;;;;;;;2.53;98.52;99564.01;217700;1257;139632;-66
2023/12/14 14:37:50;;;;;;;35.80;16.70;;;;;;;2.49;98.73;99572.45;219029;1257;140460;-66
2023/12/14 14:42:55;;;;;;;43.70;22.90;;;;;;;2.46;98.73;99578.30;218020;1256;139518;-66
2023/12/14 14:47:59;;;;;;;32.50;17.20;;;;;;;2.44;98.82;99584.88;218475;1257;139492;-66
2023/12/14 14:53:03;;;;;;;40.10;19.40;;;;;;;2.40;98.66;99589.34;218432;1256;140025;-65
2023/12/14 14:58:08;;;;;;;32.00;15.20;;;;;;;2.38;98.81;99603.77;217868;1257;139954;-66
2023/12/14 15:03:12;;;;;;;35.00;18.20;;;;;;;2.40;98.89;99609.23;219185;1256;139617;-66
2023/12/14 15:08:15;;;;;;;39.30;18.40;;;;;;;2.40;98.90;99616.04;219566;1256;140599;-66
2023/12/14 15:13:22;;;;;;;39.00;17.50;;;;;;;2.37;98.88;99613.87;217720;1257;139617;-66
2023/12/14 15:18:26;;;;;;;30.20;14.70;;;;;;;2.35;98.59;99626.55;218903;1256;141472;-65
2023/12/14 15:23:31;;;;;;;27.80;13.60;;;;;;;2.31;98.84;99640.52;218430;1256;139859;-66
2023/12/14 15:28:37;;;;;;;26.90;14.80;;;;;;;2.27;98.69;99644.73;217726;1256;139473;-65
2023/12/14 15:33:41;;;;;;;34.60;16.40;;;;;;;2.24;98.68;99649.39;218783;1256;140443;-65
2023/12/14 15:38:46;;;;;;;26.00;11.70;;;;;;;2.24;98.66;99661.92;219456;1256;140372;-65
2023/12/14 15:43:51;;;;;;;33.20;16.00;;;;;;;2.21;98.55;99672.61;220569;1256;139050;-66
2023/12/14 15:48:55;;;;;;;37.00;17.00;;;;;;;2.22;98.47;99683.67;220479;1256;141691;-67
2023/12/14 15:54:00;;;;;;;30.80;16.50;;;;;;;2.23;98.30;99691.86;219909;1256;139378;-67
2023/12/14 15:59:06;;;;;;;27.70;15.10;;;;;;;2.22;97.91;99696.17;218416;1256;139997;-65
2023/12/14 16:04:12;;;;;;;27.60;14.30;;;;;;;2.17;97.89;99703.30;217639;1257;140592;-66
2023/12/14 16:09:19;;;;;;;30.40;13.50;;;;;;;2.11;97.97;99713.14;219247;1256;139905;-66
2023/12/14 16:14:24;;;;;;;28.00;16.40;;;;;;;2.07;97.95;99718.87;218072;1256;139456;-66
2023/12/14 16:19:30;;;;;;;28.20;15.60;;;;;;;2.01;97.80;99727.20;217748;1256;140435;-64
2023/12/14 16:24:35;;;;;;;32.40;13.60;;;;;;;1.97;97.79;99732.14;217548;1256;139254;-65
2023/12/14 16:29:46;;;;;;;29.50;13.80;;;;;;;1.93;98.19;99750.27;217990;1260;140442;-65
2023/12/14 16:34:51;;;;;;;30.50;15.30;;;;;;;1.92;98.14;99757.58;217675;1256;139216;-65
2023/12/14 16:39:55;;;;;;;29.40;13.10;;;;;;;1.92;98.24;99760.40;218393;1257;139844;-65
2023/12/14 16:45:04;;;;;;;29.40;13.50;;;;;;;1.89;98.09;99763.67;217739;1260;139649;-64
2023/12/14 16:50:09;;;;;;;27.20;14.10;;;;;;;1.83;97.63;99766.30;217663;1260;140251;-64
2023/12/14 16:55:14;;;;;;;38.20;17.70;;;;;;;1.81;98.06;99763.98;218306;1256;139554;-65
2023/12/14 17:00:19;;;;;;;29.50;16.30;;;;;;;1.81;98.13;99772.19;217606;1256;139354;-65
2023/12/14 17:05:23;;;;;;;33.20;15.80;;;;;;;1.81;97.94;99780.92;219023;1256;139285;-65
2023/12/14 17:10:28;;;;;;;24.50;14.10;;;;;;;1.80;97.87;99793.19;218614;1256;139430;-64
2023/12/14 17:15:33;;;;;;;24.40;13.30;;;;;;;1.79;98.13;99799.04;217872;1256;139516;-64
2023/12/14 17:20:39;;;;;;;33.10;15.40;;;;;;;1.74;97.86;99803.71;218675;1256;141702;-65
2023/12/14 17:25:43;;;;;;;28.90;12.60;;;;;;;1.73;98.37;99806.80;220330;1256;139566;-64
2023/12/14 17:30:47;;;;;;;22.90;13.00;;;;;;;1.73;98.09;99818.37;220332;1256;140256;-63
2023/12/14 17:35:51;;;;;;;28.80;13.30;;;;;;;1.68;97.52;99829.08;220538;1256;139535;-64
2023/12/14 17:40:54;;;;;;;35.40;15.80;;;;;;;1.67;97.81;99836.79;218266;1257;139334;-64
2023/12/14 17:46:04;;;;;;;29.60;12.90;;;;;;;1.69;97.99;99839.53;219374;1256;139487;-65
2023/12/14 17:51:08;;;;;;;27.00;14.00;;;;;;;1.68;97.72;99845.85;218305;1256;139396;-64
2023/12/14 17:56:12;;;;;;;25.80;14.60;;;;;;;1.66;98.07;99850.75;218155;1256;140201;-64
2023/12/14 18:01:16;;;;;;;34.40;16.60;;;;;;;1.66;97.87;99864.42;218997;1256;140372;-63
2023/12/14 18:06:20;;;;;;;30.70;16.40;;;;;;;1.67;98.10;99871.71;218114;1257;139536;-63
2023/12/14 18:11:25;;;;;;;26.20;14.80;;;;;;;1.67;98.15;99882.52;218945;1256;139900;-63
2023/12/14 18:16:31;;;;;;;27.90;14.10;;;;;;;1.64;97.90;99894.42;218525;1256;140885;-62
2023/12/14 18:21:35;;;;;;;24.10;11.80;;;;;;;1.59;97.90;99899.07;217642;1260;206024;-63
2023/12/14 18:26:40;;;;;;;20.00;11.60;;;;;;;1.52;97.80;99908.64;217983;1256;140837;-67
2023/12/14 18:31:44;;;;;;;20.50;11.70;;;;;;;1.45;97.84;99918.87;217588;1256;139923;-66
2023/12/14 18:36:51;;;;;;;16.80;10.50;;;;;;;1.41;97.75;99925.98;217870;1260;139234;-64
2023/12/14 18:41:54;;;;;;;25.30;10.90;;;;;;;1.37;98.18;99928.52;218804;1256;139810;-64
2023/12/14 18:47:02;;;;;;;23.70;12.90;;;;;;;1.33;97.76;99942.58;218617;1256;140110;-65
2023/12/14 18:52:05;;;;;;;28.30;14.30;;;;;;;1.31;97.51;99949.67;217712;1256;161247;-65
2023/12/14 18:57:10;;;;;;;22.90;11.60;;;;;;;1.29;98.14;99963.54;217838;1257;139704;-64
2023/12/14 19:02:14;;;;;;;26.60;13.00;;;;;;;1.29;97.94;99970.91;219231;1256;139614;-65
2023/12/14 19:07:21;;;;;;;24.60;13.60;;;;;;;1.28;98.00;99978.23;219038;1256;139755;-63
2023/12/14 19:12:25;;;;;;;23.20;11.70;;;;;;;1.26;97.66;99987.20;218634;1258;141179;-64
2023/12/14 19:17:29;;;;;;;22.80;11.40;;;;;;;1.24;97.81;99999.29;219114;1256;139206;-65
2023/12/14 19:22:34;;;;;;;21.30;11.80;;;;;;;1.24;98.15;100005.10;219339;1256;140103;-64
2023/12/14 19:27:40;;;;;;;26.30;13.30;;;;;;;1.22;97.79;100010.17;220343;1256;140217;-63
2023/12/14 19:32:47;;;;;;;27.20;14.70;;;;;;;1.26;98.07;100012.15;220456;1256;139637;-65
2023/12/14 19:37:52;;;;;;;24.90;13.50;;;;;;;1.27;97.59;100016.25;219288;1256;139618;-64
2023/12/14 19:42:56;;;;;;;23.50;13.50;;;;;;;1.30;98.00;100025.11;218035;1257;140333;-64
2023/12/14 19:48:00;;;;;;;20.60;12.50;;;;;;;1.30;97.77;100033.85;217779;1257;140812;-64
2023/12/14 19:53:04;;;;;;;15.80;11.00;;;;;;;1.32;98.03;100040.61;219327;1256;139774;-64
2023/12/14 19:58:09;;;;;;;24.20;13.90;;;;;;;1.36;98.02;100050.84;217785;1256;140118;-65
2023/12/14 20:03:14;;;;;;;27.90;14.40;;;;;;;1.36;97.92;100055.02;217782;1256;211559;-64
2023/12/14 20:08:21;;;;;;;29.30;15.00;;;;;;;1.35;97.76;100070.75;218857;1256;140772;-63
2023/12/14 20:13:27;;;;;;;26.70;13.00;;;;;;;1.35;97.83;100077.58;218537;1256;139477;-63
2023/12/14 20:18:31;;;;;;;24.60;14.60;;;;;;;1.33;97.50;100084.08;218535;1257;140010;-64
2023/12/14 20:23:37;;;;;;;25.40;12.50;;;;;;;1.32;97.61;100087.52;218740;1256;142331;-63
2023/12/14 20:28:41;;;;;;;24.90;13.20;;;;;;;1.30;97.48;100098.13;218152;1256;140960;-62
2023/12/14 20:33:47;;;;;;;18.80;11.80;;;;;;;1.30;97.70;100108.53;217696;1256;139490;-63
2023/12/14 20:38:51;;;;;;;21.00;12.10;;;;;;;1.26;97.12;100117.91;218017;1256;140597;-64
2023/12/14 20:43:56;;;;;;;21.00;10.70;;;;;;;1.20;97.01;100131.54;217760;1257;139772;-62
2023/12/14 20:49:05;;;;;;;21.20;11.50;;;;;;;1.15;97.30;100140.04;217542;1257;139776;-64
2023/12/14 20:54:10;;;;;;;;;;;;;;;1.10;96.96;100154.73;218895;1256;141024;-64
2023/12/14 20:59:15;;;;;;;19.20;12.90;;;;;;;1.04;96.74;100161.02;218750;1256;215607;-63
2023/12/14 21:04:20;;;;;;;18.30;11.30;;;;;;;0.96;96.67;100173.14;217780;1257;139853;-64
2023/12/14 21:09:27;;;;;;;22.70;13.50;;;;;;;0.88;96.84;100176.40;219734;1256;140492;-64
2023/12/14 21:14:34;;;;;;;25.50;11.60;;;;;;;0.86;96.61;100182.64;219655;1256;139894;-64
2023/12/14 21:19:46;;;;;;;23.40;13.20;;;;;;;0.85;96.83;100196.90;217537;1259;139546;-65
2023/12/14 21:24:59;;;;;;;21.90;14.20;;;;;;;0.84;96.26;100205.73;220174;1256;140292;-62
2023/12/14 21:30:06;;;;;;;25.10;13.70;;;;;;;0.86;96.58;100217.31;219370;1256;140374;-65
2023/12/14 21:35:10;;;;;;;19.50;12.00;;;;;;;0.84;96.24;100226.62;219350;1256;139630;-65
2023/12/14 21:40:15;;;;;;;20.10;12.10;;;;;;;0.79;95.92;100238.64;219260;1256;139774;-64
2023/12/14 21:45:20;;;;;;;20.30;11.10;;;;;;;0.77;96.21;100245.48;219497;1256;140424;-63
2023/12/14 21:50:24;;;;;;;22.20;12.90;;;;;;;0.76;95.63;100246.00;219743;1257;139545;-64
2023/12/14 21:55:30;;;;;;;23.40;12.90;;;;;;;0.74;95.84;100246.88;218638;1256;140555;-63
2023/12/14 22:00:35;;;;;;;23.50;12.00;;;;;;;0.73;95.69;100254.48;218862;1257;140196;-63
2023/12/14 22:05:40;;;;;;;21.20;12.10;;;;;;;0.70;95.44;100258.30;218193;1256;139942;-63
2023/12/14 22:10:46;;;;;;;20.40;11.50;;;;;;;0.66;95.47;100269.38;218291;1260;354066;-63
2023/12/14 22:15:54;;;;;;;25.30;12.10;;;;;;;0.65;95.17;100275.96;218239;1256;142234;-62
2023/12/14 22:21:00;;;;;;;19.90;11.50;;;;;;;0.62;95.57;100284.16;218161;1256;139975;-64
2023/12/14 22:26:04;;;;;;;21.80;12.40;;;;;;;0.57;95.59;100290.61;217878;1260;139898;-65
2023/12/14 22:31:09;;;;;;;19.30;12.30;;;;;;;0.51;95.04;100300.90;218403;1256;141195;-62
2023/12/14 22:36:17;;;;;;;19.00;10.90;;;;;;;0.44;95.13;100309.09;218072;1257;141826;-62
2023/12/14 22:41:22;;;;;;;19.50;11.20;;;;;;;0.40;94.83;100313.55;218785;1260;140097;-63
2023/12/14 22:46:28;;;;;;;19.70;11.30;;;;;;;0.36;95.02;100316.92;218180;1260;142257;-62
2023/12/14 22:51:35;;;;;;;22.10;11.90;;;;;;;0.35;95.44;100328.20;218835;1256;232934;-61
2023/12/14 22:56:40;;;;;;;20.10;11.50;;;;;;;0.34;95.26;100333.86;218728;1257;140127;-61
2023/12/14 23:01:45;;;;;;;21.00;12.80;;;;;;;0.34;95.11;100343.66;219498;1256;140473;-64
2023/12/14 23:06:49;;;;;;;21.90;13.00;;;;;;;0.33;95.05;100357.89;218808;1257;139968;-64
2023/12/14 23:11:54;;;;;;;20.60;11.40;;;;;;;0.33;94.94;100362.77;219656;1256;140755;-63